Time;durP1;ratioP1;P1;durP2;ratioP2;P2;SDS_P1;SDS_P2;PMS_P1;PMS_P2;Temp;Humidity;BMP_temperature;BMP_pressure;BME280_temperature;BME280_humidity;BME280_pressure;Samples;Min_cycle;Max_cycle;Signal;HPM_P1;HPM_P2
2022/11/08 00:16:43;;;;;;;3.92;2.53;;;;;;;9.21;97.66;99918.13;10459882;28;20079;-69
2022/11/08 00:21:44;;;;;;;2.28;1.20;;;;;;;9.15;100.00;99915.66;10457327;28;20124;-69
2022/11/08 00:26:46;;;;;;;3.22;1.08;;;;;;;9.53;100.00;99916.34;10458491;28;20107;-69
2022/11/08 00:31:47;;;;;;;2.67;1.30;;;;;;;9.84;98.92;99913.66;10439960;28;20048;-68
2022/11/08 00:37:01;;;;;;;4.13;0.90;;;;;;;9.97;96.57;99912.38;10458358;28;20083;-68
2022/11/08 00:42:03;;;;;;;3.30;1.20;;;;;;;10.00;96.21;99912.25;10458233;28;20463;-67
2022/11/08 00:47:05;;;;;;;3.58;1.10;;;;;;;10.00;95.95;99911.41;10457339;28;20068;-68
2022/11/08 00:52:06;;;;;;;3.40;1.02;;;;;;;9.93;96.24;99908.13;10439271;28;20041;-67
2022/11/08 00:57:08;;;;;;;3.33;1.30;;;;;;;9.79;98.55;99915.56;10456849;28;20152;-68
2022/11/08 01:02:10;;;;;;;4.40;1.30;;;;;;;9.87;98.31;99905.66;10462068;28;20095;-68
2022/11/08 01:07:11;;;;;;;4.30;1.00;;;;;;;10.00;96.94;99898.25;10466661;28;20099;-68
2022/11/08 01:12:13;;;;;;;2.55;1.10;;;;;;;10.01;96.85;99895.63;10466775;28;20037;-68
2022/11/08 01:17:15;;;;;;;2.80;1.00;;;;;;;10.03;96.48;99895.56;10464737;28;20044;-69
2022/11/08 01:22:16;;;;;;;1.98;1.10;;;;;;;10.06;95.38;99880.56;10465455;28;20084;-69
2022/11/08 01:27:18;;;;;;;5.95;1.65;;;;;;;9.65;96.81;99888.84;10446471;28;20045;-69
2022/11/08 01:32:19;;;;;;;5.68;2.67;;;;;;;9.33;97.40;99888.03;10446797;28;20037;-69
2022/11/08 01:37:21;;;;;;;6.32;2.33;;;;;;;8.87;100.00;99891.97;10464657;28;20103;-68
2022/11/08 01:42:30;;;;;;;2.65;1.85;;;;;;;8.65;100.00;99883.81;10463880;28;20037;-68
2022/11/08 01:47:33;;;;;;;4.57;2.00;;;;;;;8.45;100.00;99879.06;10463428;28;20131;-68
2022/11/08 01:52:39;;;;;;;3.80;2.35;;;;;;;8.28;100.00;99871.63;10462873;28;20041;-67
2022/11/08 01:57:48;;;;;;;4.15;2.33;;;;;;;8.26;100.00;99865.56;10462172;28;20049;-68
2022/11/08 02:03:00;;;;;;;6.20;2.55;;;;;;;8.00;100.00;99858.34;10462029;28;20402;-69
2022/11/08 02:08:11;;;;;;;5.97;2.53;;;;;;;7.93;100.00;99858.56;10462269;28;20139;-68
2022/11/08 02:13:25;;;;;;;5.07;2.10;;;;;;;8.07;100.00;99854.69;10461840;28;20407;-68
2022/11/08 02:18:30;;;;;;;6.28;2.20;;;;;;;7.90;100.00;99864.69;10462628;28;20045;-69
2022/11/08 02:23:53;;;;;;;5.00;2.22;;;;;;;8.20;100.00;99852.63;10462645;28;20048;-68
2022/11/08 02:28:55;;;;;;;5.00;2.83;;;;;;;7.95;100.00;99852.38;10461767;28;20413;-69
2022/11/08 02:33:56;;;;;;;5.55;3.00;;;;;;;7.72;100.00;99857.28;10462487;28;20520;-69
2022/11/08 02:38:58;;;;;;;5.07;3.20;;;;;;;7.53;100.00;99847.25;10461543;28;20052;-69
2022/11/08 02:43:59;;;;;;;5.03;2.78;;;;;;;7.41;100.00;99844.88;10461755;28;20125;-69
2022/11/08 02:49:01;;;;;;;4.22;3.00;;;;;;;7.37;100.00;99848.47;10443902;28;20049;-69
2022/11/08 02:54:03;;;;;;;6.18;3.08;;;;;;;7.56;100.00;99843.69;10443750;28;20482;-69
2022/11/08 02:59:05;;;;;;;6.25;2.42;;;;;;;7.65;100.00;99850.47;10443160;28;20041;-69
2022/11/08 03:04:07;;;;;;;5.50;3.65;;;;;;;7.62;100.00;99847.94;10460883;28;20037;-69
2022/11/08 03:09:09;;;;;;;6.30;3.20;;;;;;;7.46;100.00;99860.47;10460818;28;20053;-69
2022/11/08 03:14:11;;;;;;;4.80;3.00;;;;;;;7.43;100.00;99860.53;10461370;28;20099;-69
2022/11/08 03:19:12;;;;;;;4.75;2.90;;;;;;;7.55;100.00;99866.38;10459573;28;20407;-68
2022/11/08 03:24:14;;;;;;;3.92;2.88;;;;;;;7.28;100.00;99865.22;10459732;28;20045;-68
2022/11/08 03:29:16;;;;;;;4.47;3.13;;;;;;;6.85;100.00;99866.97;10443058;28;20410;-69
2022/11/08 03:34:17;;;;;;;5.63;3.28;;;;;;;6.63;100.00;99866.50;10442914;28;20110;-69
2022/11/08 03:39:19;;;;;;;5.38;3.97;;;;;;;6.60;100.00;99875.28;10462332;28;20111;-72
2022/11/08 03:44:21;;;;;;;5.63;3.30;;;;;;;6.71;100.00;99875.91;10465388;28;20037;-72
2022/11/08 03:49:23;;;;;;;5.35;3.05;;;;;;;6.56;100.00;99882.28;10448993;28;20049;-72
2022/11/08 03:54:26;;;;;;;5.35;3.70;;;;;;;6.72;100.00;99872.41;10452227;28;20136;-72
2022/11/08 03:59:27;;;;;;;5.07;3.40;;;;;;;6.69;100.00;99882.09;10467153;28;20044;-72
2022/11/08 04:04:29;;;;;;;6.10;3.70;;;;;;;6.63;100.00;99876.94;10447434;28;20064;-72
2022/11/08 04:09:31;;;;;;;7.18;4.25;;;;;;;6.70;100.00;99873.34;10447480;28;20056;-72
2022/11/08 04:25:13;;;;;;;4.88;3.75;;;;;;;6.06;100.00;99873.56;10469343;28;20041;-72
2022/11/08 04:30:15;;;;;;;5.57;4.15;;;;;;;6.26;100.00;99865.41;10469304;28;20083;-71
2022/11/08 04:35:17;;;;;;;5.57;4.57;;;;;;;6.27;100.00;99867.13;10448736;28;20047;-72
2022/11/08 04:40:18;;;;;;;6.22;4.50;;;;;;;6.13;100.00;99866.50;10474724;28;20096;-72
2022/11/08 04:45:20;;;;;;;5.85;4.68;;;;;;;6.00;100.00;99865.81;10476946;28;20391;-72
2022/11/08 04:50:22;;;;;;;11.90;5.90;;;;;;;5.99;100.00;99866.72;10474976;28;20037;-71
2022/11/08 04:55:23;;;;;;;11.55;5.95;;;;;;;6.07;100.00;99872.69;10474605;28;20052;-72
2022/11/08 05:00:26;;;;;;;12.90;6.32;;;;;;;6.00;100.00;99865.81;10460419;28;20095;-72
2022/11/08 05:05:27;;;;;;;7.95;5.38;;;;;;;5.99;100.00;99858.91;10458243;28;20053;-72
2022/11/08 05:10:29;;;;;;;6.70;5.57;;;;;;;5.97;100.00;99860.66;10478423;28;20064;-72
2022/11/08 05:15:31;;;;;;;7.18;6.18;;;;;;;5.83;100.00;99863.44;10475243;28;20514;-72
2022/11/08 05:25:54;;;;;;;10.80;6.47;;;;;;;5.86;100.00;99865.16;10474465;28;20049;-71
2022/11/08 05:30:56;;;;;;;11.15;7.45;;;;;;;5.69;100.00;99868.00;10473818;28;20039;-72
2022/11/08 05:36:14;;;;;;;7.20;5.88;;;;;;;5.60;100.00;99880.31;10474847;28;20051;-72
2022/11/08 05:41:18;;;;;;;8.55;6.63;;;;;;;5.62;100.00;99881.16;10475886;28;20033;-72
2022/11/08 05:46:22;;;;;;;7.88;7.13;;;;;;;5.68;100.00;99879.34;10470329;28;20059;-68
2022/11/08 05:51:23;;;;;;;8.95;7.03;;;;;;;5.74;100.00;99881.84;10463328;28;20403;-68
2022/11/08 05:56:25;;;;;;;7.53;6.70;;;;;;;5.91;100.00;99884.22;10445368;28;20049;-68
2022/11/08 06:01:26;;;;;;;8.05;6.40;;;;;;;5.98;100.00;99887.63;10463735;28;20044;-70
2022/11/08 06:06:28;;;;;;;10.32;6.55;;;;;;;5.81;100.00;99890.44;10464139;28;20055;-71
2022/11/08 06:11:30;;;;;;;11.23;8.50;;;;;;;5.70;100.00;99885.38;10463408;28;20048;-71
2022/11/08 06:16:31;;;;;;;12.43;8.65;;;;;;;5.55;100.00;99886.47;10464561;28;20094;-69
2022/11/08 06:21:33;;;;;;;15.27;8.77;;;;;;;5.56;100.00;99879.50;10462998;28;20450;-69
2022/11/08 06:26:34;;;;;;;13.85;10.30;;;;;;;5.81;100.00;99888.69;10445822;28;20049;-71
2022/11/08 06:31:36;;;;;;;43.53;16.33;;;;;;;6.22;100.00;99886.38;10461909;28;20501;-71
2022/11/08 06:36:43;;;;;;;33.72;14.38;;;;;;;6.24;100.00;99892.41;10461251;28;20095;-71
2022/11/08 06:41:45;;;;;;;21.30;13.43;;;;;;;6.51;100.00;99894.56;10460166;28;20091;-70
2022/11/08 06:46:46;;;;;;;16.85;10.55;;;;;;;6.69;100.00;99892.53;10462247;28;20124;-70
2022/11/08 06:51:49;;;;;;;15.02;10.00;;;;;;;6.69;100.00;99887.31;10460569;28;20053;-70
2022/11/08 06:56:54;;;;;;;10.82;8.95;;;;;;;6.79;100.00;99881.00;10460606;28;20478;-71
2022/11/08 07:01:56;;;;;;;13.07;9.30;;;;;;;6.87;100.00;99886.97;10459546;28;20045;-71
2022/11/08 07:06:57;;;;;;;12.35;9.15;;;;;;;7.01;100.00;99882.31;10460395;28;20068;-71
2022/11/08 07:11:59;;;;;;;10.77;9.00;;;;;;;7.04;100.00;99871.81;10460057;28;20123;-71
2022/11/08 07:17:01;;;;;;;9.30;8.23;;;;;;;7.03;100.00;99880.53;10459922;28;20048;-70
2022/11/08 07:22:02;;;;;;;9.88;8.88;;;;;;;7.06;100.00;99882.22;10459703;28;20045;-70
2022/11/08 07:27:04;;;;;;;10.02;9.05;;;;;;;7.24;100.00;99887.06;10458685;28;20411;-71
2022/11/08 07:32:06;;;;;;;9.57;8.68;;;;;;;7.29;100.00;99886.97;10460695;28;20116;-70
2022/11/08 07:37:08;;;;;;;9.27;8.38;;;;;;;7.28;100.00;99880.03;10458544;28;20048;-71
2022/11/08 07:42:09;;;;;;;11.38;8.43;;;;;;;7.56;100.00;99886.38;10459249;28;20096;-70
2022/11/08 07:47:11;;;;;;;9.13;7.88;;;;;;;7.67;100.00;99875.72;10459500;28;20056;-71
2022/11/08 07:52:13;;;;;;;9.35;7.13;;;;;;;7.81;100.00;99876.25;10442906;28;20037;-71
2022/11/08 07:57:14;;;;;;;8.95;7.43;;;;;;;7.98;100.00;99875.84;10458363;28;20056;-70
2022/11/08 08:02:16;;;;;;;8.05;7.28;;;;;;;8.21;100.00;99879.69;10456568;28;20041;-71
2022/11/08 08:07:18;;;;;;;8.90;7.15;;;;;;;8.17;100.00;99865.78;10455834;28;20048;-71
2022/11/08 08:12:19;;;;;;;7.45;6.72;;;;;;;8.25;100.00;99873.47;10456060;28;20579;-70
2022/11/08 08:17:21;;;;;;;8.88;8.02;;;;;;;8.29;100.00;99873.34;10457665;28;20040;-71
2022/11/08 08:22:22;;;;;;;7.65;6.93;;;;;;;8.52;100.00;99871.94;10455218;28;20040;-71
2022/11/08 08:27:24;;;;;;;8.95;7.43;;;;;;;8.74;100.00;99872.22;10437204;28;20517;-71
2022/11/08 08:32:26;;;;;;;8.25;7.05;;;;;;;9.04;100.00;99870.53;10456491;28;20040;-70
2022/11/08 08:37:31;;;;;;;8.70;7.72;;;;;;;8.88;100.00;99871.84;10455371;28;20110;-70
2022/11/08 08:42:34;;;;;;;7.57;6.78;;;;;;;9.23;100.00;99871.72;10452816;28;20064;-70
2022/11/08 08:47:35;;;;;;;7.78;7.13;;;;;;;9.15;100.00;99863.22;10454821;28;20104;-70
2022/11/08 08:52:37;;;;;;;8.85;7.57;;;;;;;9.28;100.00;99859.34;10454647;28;20041;-70
2022/11/08 08:57:43;;;;;;;8.82;7.78;;;;;;;9.41;100.00;99851.09;10439061;28;1101349;-70
2022/11/08 09:02:44;;;;;;;12.32;7.13;;;;;;;9.57;100.00;99853.22;10497892;28;20482;-70
2022/11/08 09:07:46;;;;;;;7.18;6.45;;;;;;;9.88;98.71;99844.41;10463332;28;20068;-70
2022/11/08 09:12:48;;;;;;;7.72;7.03;;;;;;;9.63;100.00;99856.56;10466952;28;20072;-71
2022/11/08 09:17:53;;;;;;;8.23;6.35;;;;;;;9.98;98.80;99844.94;10457986;28;20068;-71
2022/11/08 09:22:54;;;;;;;8.07;7.28;;;;;;;10.29;96.19;99839.59;10458224;28;20083;-70
2022/11/08 09:27:56;;;;;;;8.27;6.82;;;;;;;10.25;97.17;99841.44;10445981;28;20124;-71
2022/11/08 09:32:57;;;;;;;6.57;5.95;;;;;;;10.38;95.95;99835.78;10463521;28;20103;-71
2022/11/08 09:38:03;;;;;;;7.50;6.88;;;;;;;10.44;95.66;99833.78;10463429;28;20044;-71
2022/11/08 09:43:23;;;;;;;8.20;7.35;;;;;;;10.35;97.59;99824.44;10463597;28;20145;-71
2022/11/08 09:48:35;;;;;;;9.07;6.88;;;;;;;10.76;95.74;99827.44;10445236;28;20045;-71
2022/11/08 09:53:58;;;;;;;7.53;6.93;;;;;;;11.17;92.37;99826.81;10462351;28;20045;-71
2022/11/08 09:59:23;;;;;;;7.03;5.78;;;;;;;11.20;92.52;99818.78;10462308;28;20079;-70
2022/11/08 10:04:29;;;;;;;6.47;5.78;;;;;;;11.50;90.52;99817.63;10462993;28;20103;-71
2022/11/08 10:09:42;;;;;;;8.17;5.93;;;;;;;11.81;88.95;99814.63;10461599;28;20045;-71
2022/11/08 10:14:50;;;;;;;7.63;5.05;;;;;;;11.86;89.39;99806.56;10444181;28;20076;-71
2022/11/08 10:20:23;;;;;;;6.63;5.25;;;;;;;12.29;86.83;99803.03;10461147;28;20414;-70
2022/11/08 10:25:52;;;;;;;5.65;4.43;;;;;;;12.40;86.51;99794.66;10463657;28;20041;-70
2022/11/08 10:30:54;;;;;;;5.28;4.78;;;;;;;12.87;83.34;99789.06;10464432;28;20457;-70
2022/11/08 10:36:00;;;;;;;7.28;5.28;;;;;;;13.41;82.12;99787.47;10462538;28;20056;-70
2022/11/08 10:41:16;;;;;;;5.00;4.20;;;;;;;14.11;77.33;99767.31;10445727;28;20486;-70
2022/11/08 10:46:41;;;;;;;4.78;4.00;;;;;;;14.58;75.42;99764.91;10444308;28;20083;-70
2022/11/08 10:51:45;;;;;;;7.70;4.18;;;;;;;15.59;70.21;99756.75;10462250;28;20421;-70
2022/11/08 10:56:54;;;;;;;3.80;3.08;;;;;;;16.25;70.25;99757.41;10461266;28;20408;-71
2022/11/08 11:01:57;;;;;;;3.30;2.70;;;;;;;17.26;63.35;99745.84;10443850;28;20052;-71
2022/11/08 11:07:26;;;;;;;3.65;2.20;;;;;;;18.27;57.88;99736.56;10461070;28;20052;-71
2022/11/08 11:12:28;;;;;;;3.28;2.00;;;;;;;17.86;57.73;99735.72;10460523;28;20384;-70
2022/11/08 11:17:32;;;;;;;1.10;0.70;;;;;;;17.58;52.42;99717.22;10459711;28;20056;-70
2022/11/08 11:22:45;;;;;;;1.90;0.75;;;;;;;17.26;52.26;99724.59;10444010;28;20041;-70
2022/11/08 11:27:55;;;;;;;1.77;0.60;;;;;;;17.21;53.02;99721.41;10460315;28;20483;-70
2022/11/08 11:33:12;;;;;;;2.72;0.60;;;;;;;17.27;52.55;99727.19;10461763;28;20167;-71
2022/11/08 11:38:26;;;;;;;2.20;0.70;;;;;;;16.72;52.42;99725.34;10459247;28;20045;-70
2022/11/08 11:44:07;;;;;;;1.60;0.80;;;;;;;16.74;53.52;99717.31;10458670;28;20168;-69
2022/11/08 11:49:18;;;;;;;3.22;0.90;;;;;;;16.50;54.90;99711.66;10435226;28;20077;-69
2022/11/08 11:54:25;;;;;;;1.70;0.80;;;;;;;16.53;52.32;99720.28;10440555;28;20052;-71
2022/11/08 11:59:54;;;;;;;1.25;0.73;;;;;;;16.52;54.98;99715.94;10471482;22;20052;-71
2022/11/08 12:05:23;;;;;;;1.15;0.80;;;;;;;16.37;55.27;99707.09;10459206;28;20037;-71
2022/11/08 12:10:33;;;;;;;2.20;0.93;;;;;;;16.51;52.20;99698.31;10458773;28;20383;-70
2022/11/08 12:15:58;;;;;;;1.50;0.85;;;;;;;16.10;54.19;99699.00;10458214;28;20049;-70
2022/11/08 12:21:09;;;;;;;1.83;0.70;;;;;;;15.89;53.86;99679.06;10449634;28;20545;-71
2022/11/08 12:26:25;;;;;;;1.52;0.80;;;;;;;15.81;53.91;99682.19;10439999;28;20111;-71
2022/11/08 12:31:48;;;;;;;2.88;1.02;;;;;;;15.64;54.46;99677.03;10458022;28;20455;-71
2022/11/08 12:37:02;;;;;;;2.70;0.95;;;;;;;15.75;53.66;99681.69;10459111;28;20052;-71
2022/11/08 12:42:36;;;;;;;2.58;0.90;;;;;;;15.55;53.99;99673.09;10458446;28;20043;-70
2022/11/08 12:47:49;;;;;;;2.50;1.75;;;;;;;15.57;53.83;99671.19;10457591;28;20486;-73
2022/11/08 12:53:19;;;;;;;2.25;1.20;;;;;;;15.74;53.78;99678.19;10439866;28;20056;-70
2022/11/08 12:58:32;;;;;;;1.25;0.75;;;;;;;15.31;55.64;99670.03;10459695;28;20048;-70
2022/11/08 13:03:41;;;;;;;2.35;1.05;;;;;;;15.35;55.40;99665.44;10465956;28;20406;-72
2022/11/08 13:08:56;;;;;;;3.85;1.50;;;;;;;15.48;54.09;99670.88;10447612;28;20067;-71
2022/11/08 13:13:59;;;;;;;2.83;0.93;;;;;;;15.43;54.52;99646.44;10465717;28;20045;-72
2022/11/08 13:19:04;;;;;;;1.23;0.80;;;;;;;15.07;56.11;99647.63;10447022;28;20076;-71
2022/11/08 13:24:06;;;;;;;1.50;0.90;;;;;;;15.18;55.02;99654.94;10447795;28;20398;-71
2022/11/08 13:29:29;;;;;;;2.28;0.80;;;;;;;15.20;55.31;99643.34;10475942;28;20068;-70
2022/11/08 13:34:39;;;;;;;2.97;0.93;;;;;;;15.07;56.21;99650.25;10469185;28;20045;-71
2022/11/08 13:40:05;;;;;;;1.85;1.00;;;;;;;15.11;55.24;99644.72;10503497;28;20056;-71
2022/11/08 13:45:22;;;;;;;2.10;0.80;;;;;;;15.09;54.97;99632.50;10473191;28;20041;-73
2022/11/08 13:50:27;;;;;;;2.03;0.88;;;;;;;15.09;55.08;99627.19;10448401;28;20041;-71
2022/11/08 13:55:41;;;;;;;1.60;0.77;;;;;;;14.98;55.66;99629.59;10448508;28;20048;-73
2022/11/08 14:00:45;;;;;;;1.70;1.20;;;;;;;14.70;57.11;99633.78;10447271;28;20041;-72
2022/11/08 14:05:48;;;;;;;1.60;1.20;;;;;;;14.59;57.39;99636.16;10448456;28;20044;-72
2022/11/08 14:11:23;;;;;;;2.60;1.00;;;;;;;14.43;57.99;99630.81;10465342;28;20099;-73
2022/11/08 14:16:31;;;;;;;2.50;1.02;;;;;;;14.19;59.78;99630.34;10323804;28;20061;-73
2022/11/08 14:21:33;;;;;;;1.30;1.02;;;;;;;14.42;58.79;99621.16;10338057;28;20097;-72
2022/11/08 14:26:44;;;;;;;1.85;1.10;;;;;;;14.31;59.51;99616.47;10339125;28;20464;-71
2022/11/08 14:31:47;;;;;;;1.90;0.90;;;;;;;14.12;60.41;99628.94;10337778;28;20413;-71
2022/11/08 14:36:49;;;;;;;1.40;1.02;;;;;;;14.28;60.02;99615.78;10337073;28;20114;-71
2022/11/08 14:41:59;;;;;;;2.00;1.05;;;;;;;13.89;61.51;99624.88;10320863;28;20046;-72
2022/11/08 14:47:01;;;;;;;2.38;1.10;;;;;;;13.92;62.00;99622.06;10336678;28;20405;-72
2022/11/08 14:52:10;;;;;;;2.17;1.42;;;;;;;13.59;63.06;99622.00;10405416;28;20383;-71
2022/11/08 14:57:28;;;;;;;1.42;1.00;;;;;;;13.50;63.22;99622.47;10464526;28;20103;-70
2022/11/08 15:02:30;;;;;;;2.30;1.27;;;;;;;13.19;64.54;99636.31;10462812;28;20033;-71
2022/11/08 15:07:33;;;;;;;1.83;1.10;;;;;;;13.03;65.16;99618.59;10444473;28;20068;-71
2022/11/08 15:12:40;;;;;;;3.38;1.60;;;;;;;13.10;65.18;99620.00;10461923;28;20036;-71
2022/11/08 15:17:42;;;;;;;3.05;1.70;;;;;;;12.69;67.29;99629.88;10462525;28;20123;-71
2022/11/08 15:22:45;;;;;;;3.05;1.60;;;;;;;12.45;68.64;99633.66;10472178;28;20044;-71
2022/11/08 15:27:55;;;;;;;2.38;1.77;;;;;;;12.24;69.94;99623.16;10463147;28;20041;-73
2022/11/08 15:32:57;;;;;;;8.45;2.90;;;;;;;12.02;72.01;99628.53;10469042;28;20407;-72
2022/11/08 15:38:03;;;;;;;4.18;2.88;;;;;;;11.86;74.83;99633.63;10468972;28;20053;-72
2022/11/08 15:43:04;;;;;;;5.30;3.42;;;;;;;11.75;76.98;99625.28;10461886;28;20486;-72
2022/11/08 15:48:11;;;;;;;6.13;4.00;;;;;;;11.59;78.41;99618.97;10460840;28;20052;-72
2022/11/08 15:53:13;;;;;;;4.38;3.13;;;;;;;11.21;79.77;99617.97;10442417;28;20056;-71
2022/11/08 15:58:22;;;;;;;4.50;2.90;;;;;;;11.05;81.09;99615.94;10500825;28;20493;-71
2022/11/08 16:03:24;;;;;;;6.25;3.85;;;;;;;10.77;82.66;99612.69;10501218;28;20050;-71
2022/11/08 16:08:26;;;;;;;7.30;4.00;;;;;;;10.52;84.39;99612.78;10482668;28;20083;-71
2022/11/08 16:13:32;;;;;;;5.45;3.67;;;;;;;10.39;84.63;99617.63;10500296;28;20060;-72
2022/11/08 16:18:36;;;;;;;4.65;3.40;;;;;;;10.29;86.00;99611.88;10502352;28;20379;-73
2022/11/08 16:23:43;;;;;;;6.17;4.23;;;;;;;10.44;85.60;99602.56;10500318;28;20037;-71
2022/11/08 16:28:47;;;;;;;7.15;3.92;;;;;;;10.39;85.88;99609.75;10489440;28;20473;-72
2022/11/08 16:33:52;;;;;;;5.28;4.15;;;;;;;10.20;87.30;99598.22;10442163;28;20079;-71
2022/11/08 16:38:56;;;;;;;5.70;4.65;;;;;;;10.16;88.44;99607.13;10460534;28;20037;-72
2022/11/08 16:43:59;;;;;;;6.57;4.88;;;;;;;10.10;89.82;99601.19;10459653;28;20041;-71
2022/11/08 16:49:05;;;;;;;6.32;5.10;;;;;;;10.24;90.19;99598.06;10459973;28;20511;-71
2022/11/08 16:54:27;;;;;;;7.63;5.18;;;;;;;10.30;90.09;99604.84;10441161;28;20045;-73
2022/11/08 16:59:28;;;;;;;8.82;5.07;;;;;;;10.29;89.33;99595.25;10442051;28;20450;-73
2022/11/08 17:04:33;;;;;;;6.68;5.95;;;;;;;10.19;90.99;99605.22;10441981;28;20052;-72
2022/11/08 17:09:35;;;;;;;9.98;6.13;;;;;;;10.32;91.28;99598.63;10441063;28;20045;-71
2022/11/08 17:14:36;;;;;;;9.93;6.68;;;;;;;10.32;90.77;99603.91;10458808;28;20037;-71
2022/11/08 17:19:38;;;;;;;6.45;5.82;;;;;;;10.19;91.70;99602.59;10458842;28;20041;-71
2022/11/08 17:24:40;;;;;;;6.45;5.82;;;;;;;9.88;93.30;99602.00;10441778;28;20103;-71
2022/11/08 17:29:41;;;;;;;13.20;6.30;;;;;;;9.69;94.29;99604.41;10477962;28;20109;-71
2022/11/08 17:34:43;;;;;;;8.68;6.10;;;;;;;9.92;92.85;99598.38;10500104;28;20087;-71
2022/11/08 17:39:44;;;;;;;8.57;7.75;;;;;;;9.65;94.64;99601.06;10491788;28;20037;-72
2022/11/08 17:44:46;;;;;;;9.98;7.97;;;;;;;9.79;95.46;99597.94;10460056;28;20391;-72
2022/11/08 17:49:48;;;;;;;8.32;6.65;;;;;;;9.78;95.66;99606.72;10465338;28;20053;-72
2022/11/08 17:54:50;;;;;;;9.45;7.18;;;;;;;9.71;95.39;99603.47;10465849;28;20040;-71
2022/11/08 17:59:53;;;;;;;7.15;6.50;;;;;;;9.99;94.30;99599.84;10477216;22;20075;-68
2022/11/08 18:04:56;;;;;;;7.72;6.93;;;;;;;9.62;95.63;99609.03;10465227;28;20556;-68
2022/11/08 18:09:57;;;;;;;6.75;6.15;;;;;;;9.45;96.51;99614.00;10462684;28;20433;-68
2022/11/08 18:15:00;;;;;;;7.53;5.80;;;;;;;9.24;97.48;99605.91;10461773;28;20041;-68
2022/11/08 18:20:02;;;;;;;8.45;6.82;;;;;;;9.29;98.53;99604.00;10461752;28;20406;-68
2022/11/08 18:25:04;;;;;;;8.98;8.05;;;;;;;9.57;97.02;99603.94;10465358;28;20045;-68
2022/11/08 18:30:06;;;;;;;9.60;8.80;;;;;;;9.31;98.35;99607.44;10446073;28;20071;-68
2022/11/08 18:35:09;;;;;;;10.45;9.50;;;;;;;9.22;99.31;99609.53;10463053;28;20124;-67
2022/11/08 18:40:12;;;;;;;7.68;6.93;;;;;;;9.33;98.21;99603.00;10461518;28;20407;-68
2022/11/08 18:45:13;;;;;;;7.50;6.80;;;;;;;9.25;99.48;99596.28;10462386;28;20072;-68
2022/11/08 18:50:15;;;;;;;6.85;6.03;;;;;;;9.35;99.17;99600.34;10463381;28;20503;-69
2022/11/08 18:55:17;;;;;;;6.75;6.15;;;;;;;9.39;99.58;99601.09;10465781;28;20045;-68
2022/11/08 19:00:18;;;;;;;8.45;6.63;;;;;;;9.38;100.00;99596.72;10447521;28;20115;-69
2022/11/08 19:05:20;;;;;;;6.93;6.32;;;;;;;9.44;99.14;99586.06;10461369;28;20064;-69
2022/11/08 19:10:21;;;;;;;7.35;6.65;;;;;;;9.35;99.54;99582.81;10461579;28;20041;-69
2022/11/08 19:15:26;;;;;;;7.78;7.07;;;;;;;9.35;99.73;99585.44;10459606;28;20045;-69
2022/11/08 19:20:27;;;;;;;8.98;8.13;;;;;;;9.46;98.90;99585.06;10460108;28;20041;-69
2022/11/08 19:25:29;;;;;;;8.40;7.53;;;;;;;9.48;98.89;99590.28;10460229;28;20047;-70
2022/11/08 19:30:30;;;;;;;8.07;7.25;;;;;;;9.35;98.34;99587.22;10442247;28;20080;-68
2022/11/08 19:35:32;;;;;;;7.15;6.35;;;;;;;9.45;98.81;99579.88;10458050;28;20554;-69
2022/11/08 19:40:38;;;;;;;8.48;7.78;;;;;;;9.56;100.00;99590.84;10440866;28;20049;-69
2022/11/08 19:45:41;;;;;;;12.20;11.05;;;;;;;9.52;100.00;99600.63;10458097;28;20036;-70
2022/11/08 19:50:49;;;;;;;10.00;9.00;;;;;;;9.59;100.00;99603.88;10459408;28;20048;-69
2022/11/08 19:56:07;;;;;;;10.13;7.85;;;;;;;9.61;99.95;99604.69;10458809;28;20069;-69
2022/11/08 20:01:19;;;;;;;7.68;7.00;;;;;;;9.77;96.70;99600.59;10458329;28;20045;-69
2022/11/08 20:06:22;;;;;;;7.72;7.03;;;;;;;9.56;97.83;99602.22;10457536;28;20513;-69
2022/11/08 20:11:27;;;;;;;7.50;6.78;;;;;;;9.45;98.50;99596.47;10457751;28;20094;-69
2022/11/08 20:16:36;;;;;;;7.57;6.88;;;;;;;9.34;99.37;99602.09;10460142;28;20041;-69
2022/11/08 20:21:40;;;;;;;11.82;7.45;;;;;;;9.20;100.00;99606.06;10456614;28;20044;-69
2022/11/08 20:26:43;;;;;;;6.80;6.20;;;;;;;9.14;100.00;99604.53;10456764;28;20521;-69
2022/11/08 20:31:44;;;;;;;8.40;7.03;;;;;;;9.13;100.00;99601.97;10457248;28;20041;-70
2022/11/08 20:36:47;;;;;;;8.43;7.53;;;;;;;8.89;100.00;99604.44;10456610;28;20055;-69
2022/11/08 20:41:48;;;;;;;8.75;7.95;;;;;;;8.75;100.00;99609.25;10456172;28;20049;-69
2022/11/08 20:46:50;;;;;;;8.27;7.57;;;;;;;8.46;100.00;99616.25;10456663;28;20044;-70
2022/11/08 20:51:52;;;;;;;9.68;8.55;;;;;;;8.40;100.00;99616.44;10455651;28;20045;-69
2022/11/08 20:56:53;;;;;;;8.52;7.65;;;;;;;8.43;100.00;99612.88;10439541;28;20184;-70
2022/11/08 21:01:55;;;;;;;8.35;7.65;;;;;;;8.96;100.00;99610.38;10455278;28;20049;-70
2022/11/08 21:06:57;;;;;;;7.95;7.15;;;;;;;8.81;100.00;99612.56;10456447;28;20375;-70
2022/11/08 21:12:19;;;;;;;8.85;7.95;;;;;;;8.50;100.00;99610.03;10455133;28;20049;-69
2022/11/08 21:17:20;;;;;;;7.97;7.25;;;;;;;8.43;100.00;99605.88;10456456;28;20041;-69
2022/11/08 21:22:23;;;;;;;8.43;6.85;;;;;;;8.39;100.00;99608.63;10464924;28;20336;-70
2022/11/08 21:27:24;;;;;;;8.68;7.68;;;;;;;8.29;100.00;99605.41;10445875;28;20057;-70
2022/11/08 21:32:30;;;;;;;8.98;8.07;;;;;;;8.38;100.00;99599.06;10445088;28;20037;-68
2022/11/08 21:37:31;;;;;;;8.93;7.70;;;;;;;8.48;100.00;99605.72;10461599;28;20148;-70
2022/11/08 21:42:33;;;;;;;8.02;6.90;;;;;;;8.71;100.00;99592.78;10463232;28;20041;-68
2022/11/08 21:47:40;;;;;;;;;;;;;;;8.57;100.00;99587.97;10462791;28;20049;-69
2022/11/08 21:52:42;;;;;;;7.20;6.60;;;;;;;8.56;100.00;99593.25;10462384;28;19921;-70
2022/11/08 21:57:43;;;;;;;8.07;6.53;;;;;;;9.06;100.00;99593.41;10463104;28;20049;-69
2022/11/08 22:02:45;;;;;;;6.10;5.50;;;;;;;8.86;100.00;99586.22;10463291;28;20045;-69
2022/11/08 22:07:47;;;;;;;8.85;6.20;;;;;;;8.72;100.00;99591.00;10463012;28;20049;-69
2022/11/08 22:12:48;;;;;;;6.65;5.75;;;;;;;8.74;100.00;99581.34;10462412;28;20041;-68
2022/11/08 22:17:50;;;;;;;6.07;5.50;;;;;;;8.87;100.00;99582.69;10443737;28;20147;-69
2022/11/08 22:23:11;;;;;;;5.63;5.13;;;;;;;8.88;100.00;99581.75;10461540;28;20037;-68
2022/11/08 22:28:13;;;;;;;5.45;4.82;;;;;;;9.01;100.00;99582.22;10461125;28;20049;-68
2022/11/08 22:33:14;;;;;;;7.32;5.50;;;;;;;9.03;100.00;99583.91;10461342;28;20460;-69
2022/11/08 22:38:16;;;;;;;6.43;5.57;;;;;;;9.05;100.00;99576.84;10460700;28;20499;-68
2022/11/08 22:43:18;;;;;;;6.78;5.78;;;;;;;8.95;100.00;99579.81;10460333;28;20091;-69
2022/11/08 22:48:21;;;;;;;6.22;5.63;;;;;;;8.88;100.00;99588.78;10442851;28;20495;-68
2022/11/08 22:53:23;;;;;;;8.10;6.28;;;;;;;9.06;100.00;99585.56;10460093;28;20095;-68
2022/11/08 22:58:26;;;;;;;6.15;5.65;;;;;;;9.06;100.00;99586.41;10459358;28;20103;-68
2022/11/08 23:03:28;;;;;;;7.70;6.88;;;;;;;9.10;100.00;99577.53;10459930;28;20036;-69
2022/11/08 23:08:30;;;;;;;8.68;7.97;;;;;;;9.48;100.00;99580.66;10460678;28;20068;-68
2022/11/08 23:24:19;;;;;;;11.30;10.02;;;;;;;10.04;98.71;99583.00;10460053;28;20048;-68
2022/11/08 23:34:40;;;;;;;11.52;10.43;;;;;;;9.94;98.49;99575.53;10460423;28;20099;-67
2022/11/08 23:45:02;;;;;;;12.93;11.88;;;;;;;10.08;96.70;99581.97;10458432;28;20120;-68
2022/11/08 23:50:04;;;;;;;13.98;12.68;;;;;;;10.02;97.36;99568.22;10440346;28;20449;-68
2022/11/08 23:55:06;;;;;;;15.23;14.02;;;;;;;9.94;97.40;99570.28;10440245;28;20037;-68
